Time,TemperatureF,DewpointF,PressureIn,WindDirection,WindDirectionDegrees,WindSpeedMPH,WindSpeedGustMPH,Humidity,HourlyPrecipIn,Conditions,Clouds,dailyrainin,SoftwareType,DateUTC
2013-04-12 00:03:00,29.0,23.0,-100.00,East,95,2.0,7.0,80,0.00,,,-99.99,,2013-04-12 05:03:00,
2013-04-12 00:12:00,29.0,23.0,-100.00,East,95,2.0,7.0,80,0.00,,,-99.99,,2013-04-12 05:12:00,
2013-04-12 00:23:00,29.0,23.0,-100.00,East,95,2.0,7.0,80,0.00,,,-99.99,,2013-04-12 05:23:00,
2013-04-12 00:52:00,29.0,23.0,-100.00,ESE,105,2.0,5.0,79,0.00,,,-99.99,,2013-04-12 05:52:00,
2013-04-12 01:02:00,29.0,23.0,-100.00,ESE,105,2.0,5.0,79,0.00,,,-99.99,,2013-04-12 06:02:00,
2013-04-12 01:12:00,29.0,23.0,-100.00,ESE,105,2.0,5.0,79,0.00,,,-99.99,,2013-04-12 06:12:00,
2013-04-12 01:22:00,29.0,23.0,-100.00,ESE,105,2.0,5.0,79,0.00,,,-99.99,,2013-04-12 06:22:00,
2013-04-12 02:52:00,29.0,23.0,-100.00,ENE,75,2.0,6.0,78,0.00,,,-99.99,,2013-04-12 07:52:00,
2013-04-12 03:03:00,29.0,23.0,-100.00,ENE,75,2.0,6.0,78,0.00,,,-99.99,,2013-04-12 08:03:00,
2013-04-12 03:12:00,29.0,23.0,-100.00,ENE,75,2.0,6.0,78,0.00,,,-99.99,,2013-04-12 08:12:00,
2013-04-12 03:22:00,29.0,23.0,-100.00,ENE,75,2.0,6.0,78,0.00,,,-99.99,,2013-04-12 08:22:00,
2013-04-12 03:52:00,29.0,24.0,-100.00,East,80,1.0,4.0,81,0.03,,,-99.99,,2013-04-12 08:52:00,
2013-04-12 04:02:00,29.0,24.0,-100.00,East,80,1.0,4.0,81,0.03,,,-99.99,,2013-04-12 09:02:00,
2013-04-12 04:12:00,29.0,24.0,-100.00,East,80,1.0,4.0,81,0.03,,,-99.99,,2013-04-12 09:12:00,
2013-04-12 04:22:00,29.0,24.0,-100.00,East,80,1.0,4.0,81,0.03,,,-99.99,,2013-04-12 09:22:00,
2013-04-12 04:53:00,29.0,24.0,-100.00,East,95,1.0,3.0,82,0.00,,,-99.99,,2013-04-12 09:53:00,
2013-04-12 05:03:00,29.0,24.0,-100.00,East,95,1.0,3.0,82,0.00,,,-99.99,,2013-04-12 10:03:00,
2013-04-12 05:12:00,29.0,24.0,-100.00,East,95,1.0,3.0,82,0.00,,,-99.99,,2013-04-12 10:12:00,
2013-04-12 05:23:00,29.0,24.0,-100.00,East,95,1.0,3.0,82,0.00,,,-99.99,,2013-04-12 10:23:00,
2013-04-12 05:53:00,29.0,24.0,-100.00,East,80,1.0,2.0,82,0.01,,,-99.99,,2013-04-12 10:53:00,
2013-04-12 06:02:00,29.0,24.0,-100.00,East,80,1.0,2.0,82,0.01,,,-99.99,,2013-04-12 11:02:00,
2013-04-12 06:13:00,29.0,24.0,-100.00,East,80,1.0,2.0,82,0.01,,,-99.99,,2013-04-12 11:13:00,
2013-04-12 06:22:00,29.0,24.0,-100.00,East,80,1.0,2.0,82,0.01,,,-99.99,,2013-04-12 11:22:00,
2013-04-12 07:53:00,29.0,24.0,-100.00,East,95,1.0,3.0,82,0.00,,,-99.99,,2013-04-12 12:53:00,
2013-04-12 08:03:00,29.0,24.0,-100.00,East,95,1.0,3.0,82,0.00,,,-99.99,,2013-04-12 13:03:00,
2013-04-12 08:12:00,29.0,24.0,-100.00,ENE,75,1.0,2.0,82,0.00,,,-99.99,,2013-04-12 13:12:00,
2013-04-12 08:22:00,29.0,24.0,-100.00,ENE,75,1.0,2.0,82,0.00,,,-99.99,,2013-04-12 13:22:00,
2013-04-12 08:32:00,29.0,24.0,-100.00,ENE,75,1.0,2.0,82,0.00,,,-99.99,,2013-04-12 13:32:00,
2013-04-12 08:41:00,30.0,24.0,-100.00,ENE,65,1.0,4.0,79,0.07,,,-99.99,,2013-04-12 13:41:00,
2013-04-12 08:42:00,30.0,24.0,-100.00,NE,55,1.0,2.0,80,0.14,,,-99.99,,2013-04-12 13:42:00,
2013-04-12 08:53:00,30.0,24.0,-100.00,NE,55,1.0,2.0,80,0.14,,,-99.99,,2013-04-12 13:53:00,
2013-04-12 09:03:00,30.0,24.0,-100.00,ENE,65,1.0,4.0,79,0.07,,,-99.99,,2013-04-12 14:03:00,
2013-04-12 09:13:00,30.0,24.0,-100.00,ENE,65,1.0,4.0,79,0.07,,,-99.99,,2013-04-12 14:13:00,
2013-04-12 09:22:00,30.0,24.0,-100.00,ENE,65,1.0,4.0,79,0.07,,,-99.99,,2013-04-12 14:22:00,
2013-04-12 09:32:00,30.0,24.0,-100.00,ENE,65,1.0,4.0,79,0.07,,,-99.99,,2013-04-12 14:32:00,
2013-04-12 10:12:00,31.0,23.0,-100.00,East,90,2.0,4.0,73,0.00,,,-99.99,,2013-04-12 15:12:00,
2013-04-12 10:22:00,31.0,23.0,-100.00,East,90,2.0,4.0,73,0.00,,,-99.99,,2013-04-12 15:22:00,
2013-04-12 10:33:00,31.0,23.0,-100.00,East,90,2.0,4.0,73,0.00,,,-99.99,,2013-04-12 15:33:00,
2013-04-12 10:41:00,32.0,23.0,-100.00,East,80,1.0,3.0,69,0.18,,,-99.99,,2013-04-12 15:41:00,
2013-04-12 10:43:00,32.0,23.0,-100.00,East,80,1.0,3.0,70,0.21,,,-99.99,,2013-04-12 15:43:00,
2013-04-12 10:53:00,32.0,23.0,-100.00,East,80,1.0,3.0,70,0.21,,,-99.99,,2013-04-12 15:53:00,
2013-04-12 11:04:00,32.0,23.0,-100.00,East,80,1.0,3.0,69,0.18,,,-99.99,,2013-04-12 16:04:00,
2013-04-12 11:13:00,32.0,23.0,-100.00,East,80,1.0,3.0,69,0.18,,,-99.99,,2013-04-12 16:13:00,
2013-04-12 11:23:00,32.0,23.0,-100.00,East,80,1.0,3.0,69,0.18,,,-99.99,,2013-04-12 16:23:00,
2013-04-12 11:33:00,32.0,23.0,-100.00,East,80,1.0,3.0,69,0.18,,,-99.99,,2013-04-12 16:33:00,
2013-04-12 12:03:00,33.0,24.0,-100.00,East,95,4.0,9.0,69,0.13,,,-99.99,,2013-04-12 17:03:00,
2013-04-12 12:12:00,33.0,24.0,-100.00,East,95,4.0,9.0,69,0.13,,,-99.99,,2013-04-12 17:12:00,
2013-04-12 12:23:00,33.0,24.0,-100.00,East,95,4.0,9.0,69,0.13,,,-99.99,,2013-04-12 17:23:00,
2013-04-12 12:33:00,33.0,24.0,-100.00,East,95,4.0,9.0,69,0.13,,,-99.99,,2013-04-12 17:33:00,
2013-04-12 12:44:00,35.0,25.0,-100.00,ENE,65,1.0,7.0,65,0.28,,,-99.99,,2013-04-12 17:44:00,
2013-04-12 13:06:00,35.0,25.0,-100.00,ENE,65,1.0,7.0,65,0.28,,,-99.99,,2013-04-12 18:06:00,
2013-04-12 13:42:00,35.0,22.0,-100.00,North,5,2.0,7.0,58,0.00,,,-99.99,,2013-04-12 18:42:00,
2013-04-12 14:26:00,35.0,22.0,-100.00,North,5,2.0,7.0,58,0.00,,,-99.99,,2013-04-12 19:26:00,
2013-04-12 14:32:00,35.0,22.0,-100.00,North,5,2.0,7.0,58,0.00,,,-99.99,,2013-04-12 19:32:00,
2013-04-12 14:53:00,35.0,21.0,-100.00,NE,40,1.0,5.0,57,0.00,,,-99.99,,2013-04-12 19:53:00,
2013-04-12 15:02:00,35.0,20.0,-100.00,North,0,3.0,6.0,56,0.00,,,-99.99,,2013-04-12 20:02:00,
2013-04-12 15:12:00,35.0,20.0,-100.00,North,0,3.0,6.0,56,0.00,,,-99.99,,2013-04-12 20:12:00,
2013-04-12 15:22:00,35.0,20.0,-100.00,North,0,3.0,6.0,56,0.00,,,-99.99,,2013-04-12 20:22:00,
2013-04-12 15:32:00,35.0,20.0,-100.00,North,0,3.0,6.0,56,0.00,,,-99.99,,2013-04-12 20:32:00,
2013-04-12 15:42:00,35.0,20.0,-100.00,North,0,3.0,6.0,56,0.00,,,-99.99,,2013-04-12 20:42:00,
2013-04-12 15:52:00,35.0,20.0,-100.00,WNW,285,2.0,4.0,54,0.00,,,-99.99,,2013-04-12 20:52:00,
2013-04-12 16:02:00,35.0,20.0,-100.00,WNW,285,2.0,4.0,54,0.00,,,-99.99,,2013-04-12 21:02:00,
2013-04-12 16:12:00,35.0,20.0,-100.00,WNW,285,2.0,4.0,54,0.00,,,-99.99,,2013-04-12 21:12:00,
2013-04-12 16:22:00,35.0,20.0,-100.00,WNW,285,2.0,4.0,54,0.00,,,-99.99,,2013-04-12 21:22:00,
2013-04-12 18:52:00,34.0,21.0,-100.00,WNW,285,1.0,4.0,58,0.00,,,-99.99,,2013-04-12 23:52:00,
2013-04-12 19:02:00,34.0,21.0,-100.00,WNW,285,1.0,4.0,58,0.00,,,-99.99,,2013-04-13 00:02:00,
2013-04-12 19:12:00,34.0,21.0,-100.00,WNW,285,1.0,4.0,58,0.00,,,-99.99,,2013-04-13 00:12:00,
2013-04-12 19:22:00,34.0,21.0,-100.00,WNW,285,1.0,4.0,58,0.00,,,-99.99,,2013-04-13 00:22:00,
2013-04-12 19:52:00,33.0,21.0,-100.00,WSW,240,1.0,5.0,61,0.00,,,-99.99,,2013-04-13 00:52:00,
2013-04-12 20:02:00,33.0,21.0,-100.00,WSW,240,1.0,5.0,61,0.00,,,-99.99,,2013-04-13 01:02:00,
2013-04-12 20:13:00,33.0,21.0,-100.00,WSW,240,1.0,5.0,61,0.00,,,-99.99,,2013-04-13 01:13:00,
2013-04-12 20:22:00,33.0,21.0,-100.00,WSW,240,1.0,5.0,61,0.00,,,-99.99,,2013-04-13 01:22:00,
2013-04-12 20:52:00,32.0,24.0,-100.00,West,275,2.0,4.0,71,0.00,,,-99.99,,2013-04-13 01:52:00,
2013-04-12 21:02:00,32.0,24.0,-100.00,West,275,2.0,4.0,71,0.00,,,-99.99,,2013-04-13 02:02:00,
2013-04-12 21:12:00,32.0,24.0,-100.00,West,275,2.0,4.0,71,0.00,,,-99.99,,2013-04-13 02:12:00,
2013-04-12 21:22:00,32.0,24.0,-100.00,West,275,2.0,4.0,71,0.00,,,-99.99,,2013-04-13 02:22:00,
2013-04-12 22:53:00,31.0,25.0,-100.00,West,280,2.0,6.0,78,0.00,,,-99.99,,2013-04-13 03:53:00,
2013-04-12 23:03:00,31.0,25.0,-100.00,West,280,2.0,6.0,78,0.00,,,-99.99,,2013-04-13 04:03:00,
2013-04-12 23:12:00,31.0,25.0,-100.00,West,280,2.0,6.0,78,0.00,,,-99.99,,2013-04-13 04:12:00,
2013-04-12 23:23:00,31.0,25.0,-100.00,West,280,2.0,6.0,78,0.00,,,-99.99,,2013-04-13 04:23:00,